createdAt,value
2022-11-09T00:00:56.605Z,13.20
2022-11-09T00:03:23.666Z,13.60
2022-11-09T00:05:58.591Z,13.60
2022-11-09T00:08:27.917Z,9.60
2022-11-09T00:10:55.473Z,10.00
2022-11-09T00:13:23.538Z,10.90
2022-11-09T00:15:50.625Z,9.60
2022-11-09T00:18:17.606Z,10.80
2022-11-09T00:20:47.603Z,10.30
2022-11-09T00:23:16.240Z,11.00
2022-11-09T00:25:43.858Z,8.10
2022-11-09T00:28:10.847Z,8.10
2022-11-09T00:30:37.813Z,8.20
2022-11-09T00:33:04.829Z,9.60
2022-11-09T00:35:38.225Z,9.90
2022-11-09T00:38:05.195Z,11.90
2022-11-09T00:40:32.451Z,11.70
2022-11-09T00:42:59.384Z,10.50
2022-11-09T00:45:26.423Z,9.70
2022-11-09T00:47:54.105Z,10.10
2022-11-09T00:50:21.088Z,9.30
2022-11-09T00:52:48.641Z,9.00
2022-11-09T00:55:15.816Z,9.70
2022-11-09T00:57:42.976Z,10.30
2022-11-09T01:00:11.410Z,8.20
2022-11-09T01:02:38.644Z,8.60
2022-11-09T01:05:06.159Z,8.20
2022-11-09T01:07:33.149Z,8.20
2022-11-09T01:10:00.136Z,8.40
2022-11-09T01:12:27.120Z,8.20
2022-11-09T01:14:54.159Z,8.20
2022-11-09T01:17:21.541Z,7.10
2022-11-09T01:19:49.132Z,7.20
2022-11-09T01:22:17.067Z,8.60
2022-11-09T01:24:44.153Z,8.60
2022-11-09T01:27:11.464Z,8.70
2022-11-09T01:29:38.484Z,9.30
2022-11-09T01:32:05.926Z,9.80
2022-11-09T01:34:32.989Z,7.50
2022-11-09T01:37:02.742Z,9.70
2022-11-09T01:39:30.785Z,7.90
2022-11-09T01:41:57.769Z,9.20
2022-11-09T01:44:28.035Z,8.60
2022-11-09T01:46:57.460Z,10.30
2022-11-09T01:49:33.618Z,8.10
2022-11-09T01:52:14.410Z,6.70
2022-11-09T01:54:46.341Z,7.10
2022-11-09T01:57:23.864Z,8.50
2022-11-09T01:59:53.220Z,8.80
2022-11-09T02:02:21.506Z,9.00
2022-11-09T02:04:52.092Z,9.50
2022-11-09T02:07:19.896Z,8.20
2022-11-09T02:10:12.800Z,7.80
2022-11-09T02:12:39.757Z,10.10
2022-11-09T02:15:08.897Z,8.00
2022-11-09T02:17:37.572Z,8.00
2022-11-09T02:20:13.084Z,8.80
2022-11-09T02:22:41.602Z,11.20
2022-11-09T02:25:09.701Z,14.60
2022-11-09T02:27:40.240Z,10.10
2022-11-09T02:30:07.990Z,7.60
2022-11-09T02:32:36.261Z,8.50
2022-11-09T02:35:03.923Z,8.90
2022-11-09T02:37:35.197Z,9.90
2022-11-09T02:40:05.049Z,9.80
2022-11-09T02:42:32.693Z,11.00
2022-11-09T02:44:59.912Z,15.10
2022-11-09T02:47:27.187Z,21.20
2022-11-09T02:49:54.375Z,22.60
2022-11-09T02:52:21.511Z,13.50
2022-11-09T02:54:49.563Z,9.50
2022-11-09T02:57:17.006Z,8.90
2022-11-09T02:59:44.522Z,9.60
2022-11-09T03:02:11.880Z,7.30
2022-11-09T03:04:39.991Z,7.70
2022-11-09T03:07:08.059Z,9.20
2022-11-09T03:09:35.107Z,11.30
2022-11-09T03:12:22.623Z,16.10
2022-11-09T03:14:49.882Z,10.80
2022-11-09T03:17:18.666Z,10.80
2022-11-09T03:19:45.836Z,9.20
2022-11-09T03:22:13.753Z,11.70
2022-11-09T03:24:40.739Z,14.20
2022-11-09T03:27:08.408Z,18.30
2022-11-09T03:29:35.504Z,12.80
2022-11-09T03:32:02.768Z,11.10
2022-11-09T03:34:30.543Z,11.10
2022-11-09T03:36:58.683Z,7.50
2022-11-09T03:39:25.929Z,7.30
2022-11-09T03:41:53.402Z,8.10
2022-11-09T03:44:20.693Z,9.40
2022-11-09T03:46:48.365Z,9.40
2022-11-09T03:49:15.393Z,9.60
2022-11-09T03:51:42.943Z,9.80
2022-11-09T03:54:09.953Z,7.40
2022-11-09T03:56:37.149Z,8.60
2022-11-09T03:59:04.230Z,10.20
2022-11-09T04:01:32.977Z,9.50
2022-11-09T04:04:00.855Z,8.90
2022-11-09T04:06:27.831Z,9.40
2022-11-09T04:08:54.961Z,8.80
2022-11-09T04:11:21.936Z,7.80
2022-11-09T04:13:49.525Z,8.00
2022-11-09T04:16:16.953Z,14.30
2022-11-09T04:18:45.076Z,13.60
2022-11-09T04:21:12.545Z,12.80
2022-11-09T04:23:39.714Z,10.90
2022-11-09T04:26:06.801Z,9.80
2022-11-09T04:28:33.875Z,9.30
2022-11-09T04:31:02.105Z,9.90
2022-11-09T04:33:29.217Z,9.90
2022-11-09T04:36:01.791Z,8.30
2022-11-09T04:38:28.855Z,8.20
2022-11-09T04:41:00.253Z,8.80
2022-11-09T04:43:27.228Z,8.70
2022-11-09T04:45:54.904Z,7.40
2022-11-09T04:48:21.926Z,9.70
2022-11-09T04:50:49.390Z,10.20
2022-11-09T04:53:16.445Z,9.50
2022-11-09T04:55:43.901Z,10.30
2022-11-09T04:58:10.835Z,10.30
2022-11-09T05:00:39.219Z,10.10
2022-11-09T05:03:06.684Z,9.10
2022-11-09T05:05:35.967Z,8.70
2022-11-09T05:08:03.633Z,9.70
2022-11-09T05:10:31.207Z,10.80
2022-11-09T05:13:08.992Z,10.40
2022-11-09T05:15:36.392Z,11.30
2022-11-09T05:18:04.314Z,10.30
2022-11-09T05:20:32.129Z,7.50
2022-11-09T05:23:18.468Z,7.40
2022-11-09T05:25:46.408Z,7.70
2022-11-09T05:28:13.479Z,8.60
2022-11-09T05:30:41.980Z,10.90
2022-11-09T05:33:09.212Z,10.70
2022-11-09T05:35:37.264Z,11.40
2022-11-09T05:38:04.406Z,8.70
2022-11-09T05:40:32.476Z,8.50
2022-11-09T05:42:59.439Z,12.00
2022-11-09T05:45:43.619Z,12.20
2022-11-09T05:48:12.207Z,13.50
2022-11-09T05:50:41.380Z,11.40
2022-11-09T05:53:34.614Z,11.40
2022-11-09T05:56:06.151Z,10.20
2022-11-09T05:58:36.393Z,11.20
2022-11-09T06:01:07.442Z,15.40
2022-11-09T06:03:34.516Z,22.50
2022-11-09T06:06:07.810Z,20.30
2022-11-09T06:08:35.344Z,34.80
2022-11-09T06:11:07.985Z,21.90
2022-11-09T06:13:35.570Z,16.40
2022-11-09T06:16:04.042Z,22.30
2022-11-09T06:18:31.804Z,19.20
2022-11-09T06:21:02.647Z,15.70
2022-11-09T06:23:30.324Z,18.60
2022-11-09T06:25:58.448Z,21.70
2022-11-09T06:28:25.834Z,19.20
2022-11-09T06:30:57.129Z,16.60
2022-11-09T06:33:24.040Z,16.40
2022-11-09T06:35:56.087Z,15.60
2022-11-09T06:38:24.261Z,20.50
2022-11-09T06:40:55.063Z,17.30
2022-11-09T06:43:22.429Z,16.60
2022-11-09T06:45:50.138Z,19.00
2022-11-09T06:48:17.579Z,18.00
2022-11-09T06:50:45.951Z,21.60
2022-11-09T06:53:14.816Z,17.00
2022-11-09T06:55:49.089Z,19.90
2022-11-09T06:58:18.169Z,34.30
2022-11-09T07:00:45.737Z,32.10
2022-11-09T07:03:16.878Z,26.80
2022-11-09T07:05:47.611Z,23.10
2022-11-09T07:08:14.893Z,20.90
2022-11-09T07:10:41.924Z,20.80
2022-11-09T07:13:09.219Z,25.50
2022-11-09T07:15:36.699Z,31.00
2022-11-09T07:18:04.685Z,34.40
2022-11-09T07:20:31.808Z,32.70
2022-11-09T07:23:02.062Z,28.90
2022-11-09T07:25:29.633Z,25.60
2022-11-09T07:28:03.904Z,21.10
2022-11-09T07:30:30.985Z,14.80
2022-11-09T07:33:09.360Z,28.40
2022-11-09T07:35:38.793Z,27.00
2022-11-09T07:38:05.836Z,25.50
2022-11-09T07:40:33.103Z,29.70
2022-11-09T07:43:01.039Z,34.50
2022-11-09T07:45:29.462Z,29.80
2022-11-09T07:48:04.365Z,20.50
2022-11-09T07:50:32.155Z,19.60
2022-11-09T07:53:01.864Z,19.00
2022-11-09T07:55:30.277Z,23.40
2022-11-09T07:58:03.901Z,41.60
2022-11-09T08:00:33.171Z,40.50
2022-11-09T08:03:00.361Z,33.40
2022-11-09T08:05:27.615Z,34.30
2022-11-09T08:07:59.477Z,35.50
2022-11-09T08:10:27.551Z,28.00
2022-11-09T08:12:58.793Z,25.10
2022-11-09T08:15:26.419Z,23.40
2022-11-09T08:17:54.213Z,25.80
2022-11-09T08:20:21.305Z,21.90
2022-11-09T08:22:48.422Z,20.10
2022-11-09T08:25:15.629Z,21.80
2022-11-09T08:27:43.088Z,21.90
2022-11-09T08:30:13.504Z,21.20
2022-11-09T08:32:41.494Z,20.10
2022-11-09T08:35:10.315Z,18.80
2022-11-09T08:37:37.818Z,24.30
2022-11-09T08:40:06.766Z,16.70
2022-11-09T08:42:33.845Z,16.20
2022-11-09T08:45:00.996Z,15.70
2022-11-09T08:47:28.790Z,17.80
2022-11-09T08:49:56.742Z,23.20
2022-11-09T08:52:23.855Z,30.80
2022-11-09T08:54:51.514Z,25.50
2022-11-09T08:57:19.247Z,30.00
2022-11-09T08:59:47.276Z,29.60
2022-11-09T09:02:14.729Z,33.60
2022-11-09T09:04:41.846Z,21.60
2022-11-09T09:07:09.593Z,17.90
2022-11-09T09:09:38.298Z,15.80
2022-11-09T09:12:06.640Z,13.00
2022-11-09T09:14:33.991Z,12.20
2022-11-09T09:17:01.440Z,13.80
2022-11-09T09:19:28.770Z,13.20
2022-11-09T09:21:56.001Z,12.60
2022-11-09T09:24:22.953Z,11.80
2022-11-09T09:26:50.358Z,10.50
2022-11-09T09:29:17.490Z,12.30
2022-11-09T09:31:46.134Z,12.90
2022-11-09T09:34:13.326Z,12.80
2022-11-09T09:36:46.307Z,13.10
2022-11-09T09:39:17.242Z,12.50
2022-11-09T09:41:49.496Z,10.20
2022-11-09T09:47:15.625Z,9.70
2022-11-09T09:49:47.793Z,10.60
2022-11-09T09:52:41.477Z,9.70
2022-11-09T09:55:17.767Z,8.80
2022-11-09T09:57:48.214Z,9.20
2022-11-09T10:00:25.781Z,8.00
2022-11-09T10:02:53.736Z,8.20
2022-11-09T10:05:21.360Z,8.30
2022-11-09T10:07:52.792Z,7.10
2022-11-09T10:10:22.691Z,7.70
2022-11-09T10:13:12.227Z,6.90
2022-11-09T10:15:58.322Z,6.50
2022-11-09T10:18:31.618Z,6.20
2022-11-09T10:21:11.088Z,6.60
2022-11-09T10:24:19.926Z,6.50
2022-11-09T10:26:51.146Z,7.10
2022-11-09T10:29:39.811Z,8.10
2022-11-09T10:32:17.933Z,7.70
2022-11-09T10:34:54.068Z,8.70
2022-11-09T10:37:31.622Z,6.80
2022-11-09T10:40:05.283Z,8.80
2022-11-09T10:42:53.849Z,6.20
2022-11-09T10:45:43.515Z,6.50
2022-11-09T10:48:38.586Z,7.00
2022-11-09T10:51:33.522Z,7.70
2022-11-09T10:54:31.452Z,9.90
2022-11-09T10:57:18.890Z,9.50
2022-11-09T11:00:06.411Z,8.00
2022-11-09T11:02:53.311Z,7.20
2022-11-09T11:05:39.974Z,6.40
2022-11-09T11:08:26.941Z,5.80
2022-11-09T11:11:38.046Z,5.50
2022-11-09T11:14:34.508Z,4.60
2022-11-09T11:17:27.659Z,5.00
2022-11-09T11:20:30.816Z,5.60
2022-11-09T11:23:26.303Z,5.30
2022-11-09T11:26:42.195Z,5.20
2022-11-09T11:29:48.849Z,4.50
2022-11-09T11:32:36.973Z,5.90
2022-11-09T11:35:42.902Z,6.60
2022-11-09T11:38:32.518Z,5.40
2022-11-09T11:41:37.670Z,5.00
2022-11-09T11:44:41.680Z,5.30
2022-11-09T11:47:58.170Z,4.10
2022-11-09T11:50:59.548Z,4.30
2022-11-09T11:54:27.232Z,4.10
2022-11-09T11:57:22.065Z,5.40
2022-11-09T12:00:15.637Z,7.70
2022-11-09T12:03:20.727Z,6.40
2022-11-09T12:06:34.602Z,8.30
2022-11-09T12:09:24.025Z,5.40
2022-11-09T12:12:47.423Z,4.60
2022-11-09T12:15:58.516Z,5.50
2022-11-09T12:19:27.055Z,4.70
2022-11-09T12:22:56.080Z,4.60
2022-11-09T12:25:56.133Z,4.00
2022-11-09T12:28:59.173Z,4.60
2022-11-09T12:31:57.258Z,4.00
2022-11-09T12:34:46.032Z,4.20
2022-11-09T12:37:37.703Z,4.00
2022-11-09T12:40:35.142Z,3.80
2022-11-09T12:43:24.550Z,4.10
2022-11-09T12:46:10.330Z,4.80
2022-11-09T12:48:56.635Z,4.50
2022-11-09T12:51:42.612Z,4.30
2022-11-09T12:54:28.889Z,4.70
2022-11-09T12:57:27.827Z,5.10
2022-11-09T13:00:35.297Z,5.60
2022-11-09T13:03:31.543Z,12.10
2022-11-09T13:06:25.429Z,11.40
2022-11-09T13:09:17.013Z,8.30
2022-11-09T13:12:35.136Z,7.00
2022-11-09T13:15:23.587Z,6.40
2022-11-09T13:18:26.250Z,5.50
2022-11-09T13:21:21.431Z,4.50
2022-11-09T13:24:30.657Z,5.90
2022-11-09T13:27:40.775Z,5.80
2022-11-09T13:30:28.473Z,5.80
2022-11-09T13:33:21.387Z,5.40
2022-11-09T13:36:07.293Z,6.10
2022-11-09T13:39:31.106Z,5.20
2022-11-09T13:42:32.912Z,5.40
2022-11-09T13:45:42.494Z,5.10
2022-11-09T13:48:45.168Z,5.30
2022-11-09T13:51:36.910Z,6.70
2022-11-09T13:54:35.461Z,7.60
2022-11-09T13:57:21.513Z,8.00
2022-11-09T14:00:07.425Z,9.80
2022-11-09T14:02:54.656Z,9.10
2022-11-09T14:05:41.703Z,12.00
2022-11-09T14:08:36.229Z,10.50
2022-11-09T14:11:36.758Z,11.20
2022-11-09T14:14:44.668Z,9.90
2022-11-09T14:17:58.297Z,8.60
2022-11-09T14:21:28.923Z,8.80
2022-11-09T14:24:22.857Z,13.30
2022-11-09T14:27:17.443Z,17.30
2022-11-09T14:30:02.981Z,25.70
2022-11-09T14:32:51.341Z,21.40
2022-11-09T14:35:39.251Z,27.70
2022-11-09T14:38:30.108Z,32.70
2022-11-09T14:41:25.206Z,28.90
2022-11-09T14:44:25.158Z,31.50
2022-11-09T14:47:16.965Z,32.30
2022-11-09T14:50:02.888Z,36.20
2022-11-09T14:52:50.623Z,40.30
2022-11-09T14:55:42.304Z,34.80
2022-11-09T14:58:28.762Z,49.60
2022-11-09T15:01:17.675Z,44.60
2022-11-09T15:04:07.860Z,37.10
2022-11-09T15:06:57.215Z,40.10
2022-11-09T15:09:44.418Z,34.90
2022-11-09T15:12:30.702Z,22.60
2022-11-09T15:15:21.441Z,22.70
2022-11-09T15:18:16.817Z,21.40
2022-11-09T15:21:14.002Z,23.10
2022-11-09T15:24:04.182Z,19.70
2022-11-09T15:26:50.701Z,27.40
2022-11-09T15:29:37.888Z,30.80
2022-11-09T15:32:26.827Z,26.50
2022-11-09T15:35:17.624Z,26.30
2022-11-09T15:38:03.086Z,27.50
2022-11-09T15:40:48.669Z,27.70
2022-11-09T15:43:34.574Z,19.80
2022-11-09T15:46:32.992Z,21.70
2022-11-09T15:49:22.778Z,22.70
2022-11-09T15:52:10.135Z,25.50
2022-11-09T15:54:55.889Z,29.10
2022-11-09T15:57:42.293Z,27.10
2022-11-09T16:00:28.148Z,30.50
2022-11-09T16:03:13.653Z,33.90
2022-11-09T16:05:59.514Z,35.00
2022-11-09T16:08:48.686Z,34.80
2022-11-09T16:11:34.314Z,23.40
2022-11-09T16:14:22.164Z,30.50
2022-11-09T16:17:09.458Z,28.00
2022-11-09T16:19:55.845Z,34.20
2022-11-09T16:22:42.282Z,32.90
2022-11-09T16:25:28.171Z,35.20
2022-11-09T16:28:13.929Z,33.80
2022-11-09T16:31:00.081Z,37.30
2022-11-09T16:33:46.539Z,35.90
2022-11-09T16:36:33.159Z,35.50
2022-11-09T16:39:19.035Z,27.60
2022-11-09T16:42:07.040Z,30.70
2022-11-09T16:44:52.611Z,36.20
2022-11-09T16:47:42.377Z,41.20
2022-11-09T16:50:28.172Z,50.50
2022-11-09T16:53:14.456Z,40.10
2022-11-09T16:56:00.429Z,39.30
2022-11-09T16:58:46.328Z,41.70
2022-11-09T17:01:33.193Z,37.80
2022-11-09T17:04:19.649Z,43.90
2022-11-09T17:07:06.044Z,45.70
2022-11-09T17:09:51.933Z,64.20
2022-11-09T17:12:38.466Z,42.10
2022-11-09T17:15:24.156Z,38.30
2022-11-09T17:18:11.484Z,41.80
2022-11-09T17:20:57.255Z,49.00
2022-11-09T17:23:43.209Z,60.60
2022-11-09T17:26:31.286Z,59.70
2022-11-09T17:29:17.292Z,50.60
2022-11-09T17:32:05.415Z,56.70
2022-11-09T17:34:51.252Z,56.30
2022-11-09T17:37:37.105Z,59.00
2022-11-09T17:40:22.909Z,64.90
2022-11-09T17:43:08.946Z,68.50
2022-11-09T17:45:54.797Z,69.80
2022-11-09T17:48:41.826Z,60.10
2022-11-09T17:51:27.608Z,47.70
2022-11-09T17:54:15.093Z,49.80
2022-11-09T17:57:01.400Z,53.70
2022-11-09T17:59:47.893Z,53.50
2022-11-09T18:02:36.738Z,52.60
2022-11-09T18:05:22.349Z,51.60
2022-11-09T18:08:09.671Z,57.30
2022-11-09T18:10:56.869Z,55.90
2022-11-09T18:13:42.960Z,67.30
2022-11-09T18:16:28.964Z,80.10
2022-11-09T18:19:14.576Z,63.70
2022-11-09T18:22:03.030Z,71.50
2022-11-09T18:24:49.492Z,67.00
2022-11-09T18:27:35.115Z,62.80
2022-11-09T18:30:22.792Z,68.90
2022-11-09T18:33:09.105Z,66.20
2022-11-09T18:35:56.790Z,62.00
2022-11-09T18:38:43.336Z,65.10
2022-11-09T18:43:34.125Z,75.70
2022-11-09T18:46:20.555Z,74.40
2022-11-09T18:49:11.495Z,75.50
2022-11-09T18:51:59.813Z,74.80
2022-11-09T18:54:45.660Z,82.10
2022-11-09T18:57:32.068Z,70.20
2022-11-09T19:00:18.749Z,73.70
2022-11-09T19:03:04.504Z,79.50
2022-11-09T19:05:50.391Z,68.20
2022-11-09T19:08:55.668Z,72.60
2022-11-09T19:11:41.258Z,58.30
2022-11-09T19:14:27.445Z,71.00
2022-11-09T19:17:14.861Z,54.40
2022-11-09T19:20:00.404Z,48.40
2022-11-09T19:22:45.713Z,56.80
2022-11-09T19:25:32.072Z,59.60
2022-11-09T19:28:17.900Z,60.70
2022-11-09T19:31:03.729Z,57.50
2022-11-09T19:33:49.874Z,59.00
2022-11-09T19:36:37.176Z,60.70
2022-11-09T19:39:23.721Z,54.70
2022-11-09T19:42:09.312Z,59.20
2022-11-09T19:44:56.799Z,58.60
2022-11-09T19:47:42.996Z,56.00
2022-11-09T19:50:28.325Z,55.90
2022-11-09T19:53:14.350Z,58.50
2022-11-09T19:56:01.122Z,56.00
2022-11-09T19:58:50.853Z,45.50
2022-11-09T20:01:37.147Z,46.30
2022-11-09T20:04:23.237Z,44.70
2022-11-09T20:07:10.031Z,47.10
2022-11-09T20:09:56.363Z,37.60
2022-11-09T20:12:52.248Z,37.10
2022-11-09T20:15:40.534Z,34.50
2022-11-09T20:18:26.245Z,28.10
2022-11-09T20:21:12.092Z,29.00
2022-11-09T20:24:00.707Z,31.00
2022-11-09T20:26:46.804Z,44.80
2022-11-09T20:29:32.838Z,42.30
2022-11-09T20:32:21.537Z,41.10
2022-11-09T20:35:07.811Z,40.80
2022-11-09T20:37:53.794Z,40.10
2022-11-09T20:40:40.263Z,36.50
2022-11-09T20:43:26.512Z,38.60
2022-11-09T20:46:17.588Z,40.10
2022-11-09T20:49:04.541Z,41.50
2022-11-09T20:51:50.245Z,51.50
2022-11-09T20:54:38.885Z,78.60
2022-11-09T20:57:25.407Z,50.90
2022-11-09T21:00:12.645Z,40.30
2022-11-09T21:02:59.344Z,33.90
2022-11-09T21:05:49.423Z,34.00
2022-11-09T21:08:40.595Z,35.10
2022-11-09T21:11:28.830Z,35.80
2022-11-09T21:14:14.397Z,45.30
2022-11-09T21:17:00.088Z,40.30
2022-11-09T21:19:47.592Z,39.20
2022-11-09T21:23:06.291Z,38.40
2022-11-09T21:26:10.153Z,41.10
2022-11-09T21:29:14.220Z,41.90
2022-11-09T21:31:59.820Z,46.20
2022-11-09T21:34:45.617Z,44.90
2022-11-09T21:37:31.826Z,34.30
2022-11-09T21:40:17.401Z,36.50
2022-11-09T21:43:03.357Z,39.40
2022-11-09T21:45:49.889Z,45.30
2022-11-09T21:48:35.950Z,43.10
2022-11-09T21:51:21.672Z,40.20
2022-11-09T21:54:07.661Z,37.00
2022-11-09T21:56:53.500Z,35.80
2022-11-09T21:59:39.562Z,27.50
2022-11-09T22:02:25.761Z,26.20
2022-11-09T22:05:11.263Z,26.30
2022-11-09T22:07:58.007Z,26.80
2022-11-09T22:10:43.487Z,29.10
2022-11-09T22:13:48.469Z,26.00
2022-11-09T22:16:34.154Z,26.00
2022-11-09T22:19:39.519Z,21.70
2022-11-09T22:22:27.687Z,21.70
2022-11-09T22:25:13.398Z,26.30
2022-11-09T22:27:59.131Z,27.30
2022-11-09T22:30:47.604Z,34.60
2022-11-09T22:33:34.176Z,32.30
2022-11-09T22:36:23.280Z,28.00
2022-11-09T22:39:10.127Z,24.70
2022-11-09T22:41:55.428Z,24.40
2022-11-09T22:44:42.513Z,25.40
2022-11-09T22:47:28.393Z,25.70
2022-11-09T22:50:15.429Z,24.70
2022-11-09T22:53:03.888Z,26.00
2022-11-09T22:55:54.725Z,26.50
2022-11-09T22:58:40.417Z,24.10
2022-11-09T23:04:29.981Z,25.80
2022-11-09T23:07:16.037Z,24.00
2022-11-09T23:10:02.158Z,23.40
2022-11-09T23:12:48.108Z,23.60
2022-11-09T23:15:35.569Z,23.00
2022-11-09T23:18:40.303Z,16.90
2022-11-09T23:21:33.586Z,18.20
2022-11-09T23:24:37.734Z,20.00
2022-11-09T23:27:23.372Z,19.80
2022-11-09T23:30:09.661Z,19.90
2022-11-09T23:32:55.471Z,18.70
2022-11-09T23:35:41.741Z,18.80
2022-11-09T23:38:27.607Z,15.00
2022-11-09T23:41:13.322Z,15.80
2022-11-09T23:43:58.738Z,15.90
2022-11-09T23:46:45.411Z,16.10
2022-11-09T23:49:31.241Z,16.40
2022-11-09T23:52:16.978Z,17.60
2022-11-09T23:55:02.583Z,17.50
2022-11-09T23:57:49.205Z,15.20
